CYTZ/YTZ METAR and TAF weather

Enter ICAO airport designator
Station Type Date Time Source
CYTZ METAR 2024/06/15 23:00 UTC NOAA

CYTZ 152300Z AUTO 19004KT 110V210 9SM CLR 19/11 A3013 RMK SLP206 DENSITY ALT 500FT


Station Type Date Time Source
CYTZ Decoded METAR 2024/06/15 23:00 UTC NOAA

Toronto Island Airport Automated Reporting Station, Canada (CYTZ) 43-38N 079-24W
Jun 15, 2024 - 07:00 PM EDT / 2024.06.15 2300 UTC
Wind: from the S (190 degrees) at 5 MPH (4 KT) (direction variable):0
Visibility: 9 mile(s):0
Sky conditions: clear
Temperature: 66 F (19 C)
Dew Point: 51 F (11 C)
Relative Humidity: 59%
Pressure (altimeter): 30.13 in. Hg (1020 hPa)
ob: CYTZ 152300Z AUTO 19004KT 110V210 9SM CLR 19/11 A3013 RMK SLP206 DENSITY ALT 500FT
cycle: 23

Station Type Date Time Source
CYTZ TAF 2024/06/15 20:45 UTC NOAA